Airport View

Enter AWOS ICAO identifier for current METAR.

ex. KFNL

KTMK 192055Z AUTO 31010KT 10SM CLR 23/12 A3001 RMK AO2

19 Aug 2019 21:07

Frequency: 120.0

Phone: 503-842-8792

Other Area AWOS: KMMV - KHIO - KAST - KUAO

TAF KHIO 191727Z 1918/2018 14004KT P6SM OVC035 FM192000 VRB02KT P6SM SCT035 FM200100 01005KT P6SM SKC FM201100 01003KT P6SM SCT025 FM201700 17003KT P6SM SCT040